sensor_id;sensor_type;location;lat;lon;timestamp;temperature;humidity
12446;DHT22;6287;50.984;7.022;2023-03-14T00:01:18;11.40;99.90
12446;DHT22;6287;50.984;7.022;2023-03-14T00:03:47;11.40;99.90
12446;DHT22;6287;50.984;7.022;2023-03-14T00:06:16;11.40;99.90
12446;DHT22;6287;50.984;7.022;2023-03-14T00:08:43;11.40;99.90
12446;DHT22;6287;50.984;7.022;2023-03-14T00:11:19;12.00;99.90
12446;DHT22;6287;50.984;7.022;2023-03-14T00:13:50;12.00;99.90
12446;DHT22;6287;50.984;7.022;2023-03-14T00:16:18;11.40;99.90
12446;DHT22;6287;50.984;7.022;2023-03-14T00:18:44;11.30;99.90
12446;DHT22;6287;50.984;7.022;2023-03-14T00:21:10;11.40;99.90
12446;DHT22;6287;50.984;7.022;2023-03-14T00:23:37;11.50;99.90
12446;DHT22;6287;50.984;7.022;2023-03-14T00:26:11;11.40;99.90
12446;DHT22;6287;50.984;7.022;2023-03-14T00:28:42;11.50;99.90
12446;DHT22;6287;50.984;7.022;2023-03-14T00:31:10;11.50;99.90
12446;DHT22;6287;50.984;7.022;2023-03-14T00:33:41;11.50;99.90
12446;DHT22;6287;50.984;7.022;2023-03-14T00:36:15;11.50;99.90
12446;DHT22;6287;50.984;7.022;2023-03-14T00:38:45;11.80;99.90
12446;DHT22;6287;50.984;7.022;2023-03-14T00:41:16;11.50;99.90
12446;DHT22;6287;50.984;7.022;2023-03-14T00:43:42;11.50;99.90
12446;DHT22;6287;50.984;7.022;2023-03-14T00:46:09;11.50;99.90
12446;DHT22;6287;50.984;7.022;2023-03-14T00:48:35;11.50;99.90
12446;DHT22;6287;50.984;7.022;2023-03-14T00:51:02;11.50;99.90
12446;DHT22;6287;50.984;7.022;2023-03-14T00:53:28;11.60;99.90
12446;DHT22;6287;50.984;7.022;2023-03-14T00:56:01;11.60;99.90
12446;DHT22;6287;50.984;7.022;2023-03-14T00:58:29;11.60;99.90
12446;DHT22;6287;50.984;7.022;2023-03-14T01:00:55;11.60;99.90
12446;DHT22;6287;50.984;7.022;2023-03-14T01:03:20;11.60;99.90
12446;DHT22;6287;50.984;7.022;2023-03-14T01:05:46;11.60;99.90
12446;DHT22;6287;50.984;7.022;2023-03-14T01:08:17;11.60;99.90
12446;DHT22;6287;50.984;7.022;2023-03-14T01:10:43;11.70;99.90
12446;DHT22;6287;50.984;7.022;2023-03-14T01:13:09;11.60;99.90
12446;DHT22;6287;50.984;7.022;2023-03-14T01:15:36;11.70;99.90
12446;DHT22;6287;50.984;7.022;2023-03-14T01:18:02;11.70;99.90
12446;DHT22;6287;50.984;7.022;2023-03-14T01:20:28;11.70;99.90
12446;DHT22;6287;50.984;7.022;2023-03-14T01:22:53;11.80;99.90
12446;DHT22;6287;50.984;7.022;2023-03-14T01:25:21;11.60;99.90
12446;DHT22;6287;50.984;7.022;2023-03-14T01:27:52;11.50;99.90
12446;DHT22;6287;50.984;7.022;2023-03-14T01:30:17;11.20;99.90
12446;DHT22;6287;50.984;7.022;2023-03-14T01:32:43;10.90;99.90
12446;DHT22;6287;50.984;7.022;2023-03-14T01:35:08;10.60;99.90
12446;DHT22;6287;50.984;7.022;2023-03-14T01:37:36;10.50;99.90
12446;DHT22;6287;50.984;7.022;2023-03-14T01:40:02;10.30;99.90
12446;DHT22;6287;50.984;7.022;2023-03-14T01:42:32;10.20;99.90
12446;DHT22;6287;50.984;7.022;2023-03-14T01:44:59;10.20;99.90
12446;DHT22;6287;50.984;7.022;2023-03-14T01:47:29;10.10;99.90
12446;DHT22;6287;50.984;7.022;2023-03-14T01:50:05;10.00;99.90
12446;DHT22;6287;50.984;7.022;2023-03-14T01:52:39;10.00;99.90
12446;DHT22;6287;50.984;7.022;2023-03-14T01:55:11;10.00;99.90
12446;DHT22;6287;50.984;7.022;2023-03-14T01:57:45;9.90;99.90
12446;DHT22;6287;50.984;7.022;2023-03-14T02:00:18;10.10;99.90
12446;DHT22;6287;50.984;7.022;2023-03-14T02:02:49;10.00;99.90
12446;DHT22;6287;50.984;7.022;2023-03-14T02:05:21;9.90;99.90
12446;DHT22;6287;50.984;7.022;2023-03-14T02:07:51;10.10;99.90
12446;DHT22;6287;50.984;7.022;2023-03-14T02:10:18;9.90;99.90
12446;DHT22;6287;50.984;7.022;2023-03-14T02:12:49;9.90;99.90
12446;DHT22;6287;50.984;7.022;2023-03-14T02:15:18;9.90;99.90
12446;DHT22;6287;50.984;7.022;2023-03-14T02:17:45;9.90;99.90
12446;DHT22;6287;50.984;7.022;2023-03-14T02:23:00;9.80;99.90
12446;DHT22;6287;50.984;7.022;2023-03-14T02:25:35;9.80;99.90
12446;DHT22;6287;50.984;7.022;2023-03-14T02:28:04;9.80;99.90
12446;DHT22;6287;50.984;7.022;2023-03-14T02:30:31;9.80;99.90
12446;DHT22;6287;50.984;7.022;2023-03-14T02:33:07;10.60;99.90
12446;DHT22;6287;50.984;7.022;2023-03-14T02:35:42;9.80;99.90
12446;DHT22;6287;50.984;7.022;2023-03-14T02:40:50;9.70;99.90
12446;DHT22;6287;50.984;7.022;2023-03-14T02:43:18;10.10;99.90
12446;DHT22;6287;50.984;7.022;2023-03-14T02:45:47;9.70;99.90
12446;DHT22;6287;50.984;7.022;2023-03-14T02:50:41;9.90;99.90
12446;DHT22;6287;50.984;7.022;2023-03-14T02:53:13;9.70;99.90
12446;DHT22;6287;50.984;7.022;2023-03-14T02:55:39;9.70;99.90
12446;DHT22;6287;50.984;7.022;2023-03-14T02:58:04;9.60;99.90
12446;DHT22;6287;50.984;7.022;2023-03-14T03:00:30;9.70;99.90
12446;DHT22;6287;50.984;7.022;2023-03-14T03:02:58;9.60;99.90
12446;DHT22;6287;50.984;7.022;2023-03-14T03:05:26;9.70;99.90
12446;DHT22;6287;50.984;7.022;2023-03-14T03:07:54;9.70;99.90
12446;DHT22;6287;50.984;7.022;2023-03-14T03:10:27;9.70;99.90
12446;DHT22;6287;50.984;7.022;2023-03-14T03:12:55;9.90;99.90
12446;DHT22;6287;50.984;7.022;2023-03-14T03:15:22;9.70;99.90
12446;DHT22;6287;50.984;7.022;2023-03-14T03:17:47;9.70;99.90
12446;DHT22;6287;50.984;7.022;2023-03-14T03:20:13;9.60;99.90
12446;DHT22;6287;50.984;7.022;2023-03-14T03:22:39;9.60;99.90
12446;DHT22;6287;50.984;7.022;2023-03-14T03:25:07;9.60;99.90
12446;DHT22;6287;50.984;7.022;2023-03-14T03:27:37;9.60;99.90
12446;DHT22;6287;50.984;7.022;2023-03-14T03:30:07;9.50;99.90
12446;DHT22;6287;50.984;7.022;2023-03-14T03:32:33;9.50;99.90
12446;DHT22;6287;50.984;7.022;2023-03-14T03:35:04;10.10;99.90
12446;DHT22;6287;50.984;7.022;2023-03-14T03:37:33;9.50;99.90
12446;DHT22;6287;50.984;7.022;2023-03-14T03:40:02;10.90;99.90
12446;DHT22;6287;50.984;7.022;2023-03-14T03:42:32;9.50;99.90
12446;DHT22;6287;50.984;7.022;2023-03-14T03:44:59;9.60;99.90
12446;DHT22;6287;50.984;7.022;2023-03-14T03:47:25;11.60;99.90
12446;DHT22;6287;50.984;7.022;2023-03-14T03:49:53;9.60;99.90
12446;DHT22;6287;50.984;7.022;2023-03-14T03:52:21;9.60;99.90
12446;DHT22;6287;50.984;7.022;2023-03-14T03:54:48;9.90;99.90
12446;DHT22;6287;50.984;7.022;2023-03-14T03:57:16;11.20;99.90
12446;DHT22;6287;50.984;7.022;2023-03-14T03:59:42;9.60;99.90
12446;DHT22;6287;50.984;7.022;2023-03-14T04:02:10;9.60;99.90
12446;DHT22;6287;50.984;7.022;2023-03-14T04:04:40;9.60;99.90
12446;DHT22;6287;50.984;7.022;2023-03-14T04:07:08;9.60;99.90
12446;DHT22;6287;50.984;7.022;2023-03-14T04:09:38;9.70;99.90
12446;DHT22;6287;50.984;7.022;2023-03-14T04:12:04;9.60;99.90
12446;DHT22;6287;50.984;7.022;2023-03-14T04:14:32;9.60;99.90
12446;DHT22;6287;50.984;7.022;2023-03-14T04:17:00;9.60;99.90
12446;DHT22;6287;50.984;7.022;2023-03-14T04:19:25;9.60;99.90
12446;DHT22;6287;50.984;7.022;2023-03-14T04:21:51;9.60;99.90
12446;DHT22;6287;50.984;7.022;2023-03-14T04:24:19;9.60;99.90
12446;DHT22;6287;50.984;7.022;2023-03-14T04:26:49;9.70;99.90
12446;DHT22;6287;50.984;7.022;2023-03-14T04:29:15;9.70;99.90
12446;DHT22;6287;50.984;7.022;2023-03-14T04:31:43;11.00;99.90
12446;DHT22;6287;50.984;7.022;2023-03-14T04:34:11;9.60;99.90
12446;DHT22;6287;50.984;7.022;2023-03-14T04:36:36;10.20;99.90
12446;DHT22;6287;50.984;7.022;2023-03-14T04:39:04;9.60;99.90
12446;DHT22;6287;50.984;7.022;2023-03-14T04:41:32;9.60;99.90
12446;DHT22;6287;50.984;7.022;2023-03-14T04:44:02;10.20;99.90
12446;DHT22;6287;50.984;7.022;2023-03-14T04:46:28;9.60;99.90
12446;DHT22;6287;50.984;7.022;2023-03-14T04:48:55;9.90;99.90
12446;DHT22;6287;50.984;7.022;2023-03-14T04:51:22;9.70;99.90
12446;DHT22;6287;50.984;7.022;2023-03-14T04:53:53;9.70;99.90
12446;DHT22;6287;50.984;7.022;2023-03-14T04:56:21;9.70;99.90
12446;DHT22;6287;50.984;7.022;2023-03-14T04:58:49;9.70;99.90
12446;DHT22;6287;50.984;7.022;2023-03-14T05:01:14;9.70;99.90
12446;DHT22;6287;50.984;7.022;2023-03-14T05:03:43;9.70;99.90
12446;DHT22;6287;50.984;7.022;2023-03-14T05:06:11;9.70;99.90
12446;DHT22;6287;50.984;7.022;2023-03-14T05:08:36;9.70;99.90
12446;DHT22;6287;50.984;7.022;2023-03-14T05:11:02;9.70;99.90
12446;DHT22;6287;50.984;7.022;2023-03-14T05:13:28;9.70;99.90
12446;DHT22;6287;50.984;7.022;2023-03-14T05:16:01;9.70;99.90
12446;DHT22;6287;50.984;7.022;2023-03-14T05:18:30;10.80;99.90
12446;DHT22;6287;50.984;7.022;2023-03-14T05:20:58;9.70;99.90
12446;DHT22;6287;50.984;7.022;2023-03-14T05:23:26;9.80;99.90
12446;DHT22;6287;50.984;7.022;2023-03-14T05:25:54;9.70;99.90
12446;DHT22;6287;50.984;7.022;2023-03-14T05:28:19;10.10;99.90
12446;DHT22;6287;50.984;7.022;2023-03-14T05:30:46;9.70;99.90
12446;DHT22;6287;50.984;7.022;2023-03-14T05:33:11;9.90;99.90
12446;DHT22;6287;50.984;7.022;2023-03-14T05:35:39;9.70;99.90
12446;DHT22;6287;50.984;7.022;2023-03-14T05:38:07;11.20;99.90
12446;DHT22;6287;50.984;7.022;2023-03-14T05:40:34;9.80;99.90
12446;DHT22;6287;50.984;7.022;2023-03-14T05:43:02;9.80;99.90
12446;DHT22;6287;50.984;7.022;2023-03-14T05:45:30;9.80;99.90
12446;DHT22;6287;50.984;7.022;2023-03-14T05:47:55;10.50;99.90
12446;DHT22;6287;50.984;7.022;2023-03-14T05:50:21;9.80;99.90
12446;DHT22;6287;50.984;7.022;2023-03-14T05:52:46;9.80;99.90
12446;DHT22;6287;50.984;7.022;2023-03-14T05:55:14;9.80;99.90
12446;DHT22;6287;50.984;7.022;2023-03-14T05:57:42;9.80;99.90
12446;DHT22;6287;50.984;7.022;2023-03-14T06:00:08;10.00;99.90
12446;DHT22;6287;50.984;7.022;2023-03-14T06:02:36;9.90;99.90
12446;DHT22;6287;50.984;7.022;2023-03-14T06:05:04;9.90;99.90
12446;DHT22;6287;50.984;7.022;2023-03-14T06:07:32;10.00;99.90
12446;DHT22;6287;50.984;7.022;2023-03-14T06:10:00;9.90;99.90
12446;DHT22;6287;50.984;7.022;2023-03-14T06:12:28;10.00;99.90
12446;DHT22;6287;50.984;7.022;2023-03-14T06:14:56;10.00;99.90
12446;DHT22;6287;50.984;7.022;2023-03-14T06:17:22;10.40;99.90
12446;DHT22;6287;50.984;7.022;2023-03-14T06:19:50;10.00;99.90
12446;DHT22;6287;50.984;7.022;2023-03-14T06:22:15;10.00;99.90
12446;DHT22;6287;50.984;7.022;2023-03-14T06:24:44;10.00;99.90
12446;DHT22;6287;50.984;7.022;2023-03-14T06:27:15;10.00;99.90
12446;DHT22;6287;50.984;7.022;2023-03-14T06:29:43;10.00;99.90
12446;DHT22;6287;50.984;7.022;2023-03-14T06:32:09;10.60;99.90
12446;DHT22;6287;50.984;7.022;2023-03-14T06:34:35;9.90;99.90
12446;DHT22;6287;50.984;7.022;2023-03-14T06:37:00;10.00;99.90
12446;DHT22;6287;50.984;7.022;2023-03-14T06:39:26;10.00;99.90
12446;DHT22;6287;50.984;7.022;2023-03-14T06:41:54;10.00;99.90
12446;DHT22;6287;50.984;7.022;2023-03-14T06:44:20;10.10;99.90
12446;DHT22;6287;50.984;7.022;2023-03-14T06:46:45;10.50;99.90
12446;DHT22;6287;50.984;7.022;2023-03-14T06:49:13;10.20;99.90
12446;DHT22;6287;50.984;7.022;2023-03-14T06:51:41;10.20;99.90
12446;DHT22;6287;50.984;7.022;2023-03-14T06:54:09;10.20;99.90
12446;DHT22;6287;50.984;7.022;2023-03-14T06:56:34;10.30;99.90
12446;DHT22;6287;50.984;7.022;2023-03-14T06:59:02;10.40;99.90
12446;DHT22;6287;50.984;7.022;2023-03-14T07:01:31;10.40;99.90
12446;DHT22;6287;50.984;7.022;2023-03-14T07:04:00;10.40;99.90
12446;DHT22;6287;50.984;7.022;2023-03-14T07:06:28;10.50;99.90
12446;DHT22;6287;50.984;7.022;2023-03-14T07:08:57;10.70;99.90
12446;DHT22;6287;50.984;7.022;2023-03-14T07:11:23;10.60;99.90
12446;DHT22;6287;50.984;7.022;2023-03-14T07:13:48;10.60;99.90
12446;DHT22;6287;50.984;7.022;2023-03-14T07:16:14;10.60;99.90
12446;DHT22;6287;50.984;7.022;2023-03-14T07:18:42;10.50;99.90
12446;DHT22;6287;50.984;7.022;2023-03-14T07:21:10;10.70;99.90
12446;DHT22;6287;50.984;7.022;2023-03-14T07:23:41;10.80;99.90
12446;DHT22;6287;50.984;7.022;2023-03-14T07:26:09;10.70;99.90
12446;DHT22;6287;50.984;7.022;2023-03-14T07:28:37;10.70;99.90
12446;DHT22;6287;50.984;7.022;2023-03-14T07:31:05;11.60;99.90
12446;DHT22;6287;50.984;7.022;2023-03-14T07:33:32;10.80;99.90
12446;DHT22;6287;50.984;7.022;2023-03-14T07:36:01;10.90;99.90
12446;DHT22;6287;50.984;7.022;2023-03-14T07:38:27;10.90;99.90
12446;DHT22;6287;50.984;7.022;2023-03-14T07:41:06;10.90;99.90
12446;DHT22;6287;50.984;7.022;2023-03-14T07:43:34;11.00;99.90
12446;DHT22;6287;50.984;7.022;2023-03-14T07:45:59;11.10;99.90
12446;DHT22;6287;50.984;7.022;2023-03-14T07:48:25;11.10;99.90
12446;DHT22;6287;50.984;7.022;2023-03-14T07:50:55;11.10;99.90
12446;DHT22;6287;50.984;7.022;2023-03-14T07:53:23;11.20;99.90
12446;DHT22;6287;50.984;7.022;2023-03-14T07:55:52;11.20;99.90
12446;DHT22;6287;50.984;7.022;2023-03-14T07:58:23;11.20;99.90
12446;DHT22;6287;50.984;7.022;2023-03-14T08:00:52;11.30;99.90
12446;DHT22;6287;50.984;7.022;2023-03-14T08:03:18;11.30;99.90
12446;DHT22;6287;50.984;7.022;2023-03-14T08:05:50;11.40;99.90
12446;DHT22;6287;50.984;7.022;2023-03-14T08:08:23;11.50;99.90
12446;DHT22;6287;50.984;7.022;2023-03-14T08:10:49;11.50;99.90
12446;DHT22;6287;50.984;7.022;2023-03-14T08:13:15;11.50;99.90
12446;DHT22;6287;50.984;7.022;2023-03-14T08:15:40;11.50;99.90
12446;DHT22;6287;50.984;7.022;2023-03-14T08:18:08;11.50;99.90
12446;DHT22;6287;50.984;7.022;2023-03-14T08:20:36;11.60;99.90
12446;DHT22;6287;50.984;7.022;2023-03-14T08:23:02;11.60;99.90
12446;DHT22;6287;50.984;7.022;2023-03-14T08:25:28;11.50;99.90
12446;DHT22;6287;50.984;7.022;2023-03-14T08:27:54;11.70;99.90
12446;DHT22;6287;50.984;7.022;2023-03-14T08:30:21;11.70;99.90
12446;DHT22;6287;50.984;7.022;2023-03-14T08:32:49;11.70;99.90
12446;DHT22;6287;50.984;7.022;2023-03-14T08:35:15;11.80;99.90
12446;DHT22;6287;50.984;7.022;2023-03-14T08:37:41;11.90;99.90
12446;DHT22;6287;50.984;7.022;2023-03-14T08:40:09;11.90;99.90
12446;DHT22;6287;50.984;7.022;2023-03-14T08:42:38;11.90;99.90
12446;DHT22;6287;50.984;7.022;2023-03-14T08:45:08;11.80;99.90
12446;DHT22;6287;50.984;7.022;2023-03-14T08:47:33;11.80;99.90
12446;DHT22;6287;50.984;7.022;2023-03-14T08:50:04;11.80;99.90
12446;DHT22;6287;50.984;7.022;2023-03-14T08:52:33;11.80;99.90
12446;DHT22;6287;50.984;7.022;2023-03-14T08:55:01;11.80;99.90
12446;DHT22;6287;50.984;7.022;2023-03-14T08:57:28;11.80;99.90
12446;DHT22;6287;50.984;7.022;2023-03-14T08:59:59;12.10;99.90
12446;DHT22;6287;50.984;7.022;2023-03-14T09:02:30;11.70;99.90
12446;DHT22;6287;50.984;7.022;2023-03-14T09:04:55;11.80;99.90
12446;DHT22;6287;50.984;7.022;2023-03-14T09:07:21;11.80;99.90
12446;DHT22;6287;50.984;7.022;2023-03-14T09:09:47;11.70;99.90
12446;DHT22;6287;50.984;7.022;2023-03-14T09:12:15;11.50;99.90
12446;DHT22;6287;50.984;7.022;2023-03-14T09:14:40;11.40;99.90
12446;DHT22;6287;50.984;7.022;2023-03-14T09:17:13;11.20;99.90
12446;DHT22;6287;50.984;7.022;2023-03-14T09:19:41;11.70;99.90
12446;DHT22;6287;50.984;7.022;2023-03-14T09:22:06;11.10;99.90
12446;DHT22;6287;50.984;7.022;2023-03-14T09:24:34;11.00;99.90
12446;DHT22;6287;50.984;7.022;2023-03-14T09:27:00;11.00;99.90
12446;DHT22;6287;50.984;7.022;2023-03-14T09:29:28;11.00;99.90
12446;DHT22;6287;50.984;7.022;2023-03-14T09:31:54;11.00;99.90
12446;DHT22;6287;50.984;7.022;2023-03-14T09:34:22;11.00;99.90
12446;DHT22;6287;50.984;7.022;2023-03-14T09:36:52;11.00;99.90
12446;DHT22;6287;50.984;7.022;2023-03-14T09:39:18;11.10;99.90
12446;DHT22;6287;50.984;7.022;2023-03-14T09:41:48;11.20;99.90
12446;DHT22;6287;50.984;7.022;2023-03-14T09:44:21;11.10;99.90
12446;DHT22;6287;50.984;7.022;2023-03-14T09:46:53;10.70;99.90
12446;DHT22;6287;50.984;7.022;2023-03-14T09:51:52;10.30;99.90
12446;DHT22;6287;50.984;7.022;2023-03-14T09:54:29;10.20;99.90
12446;DHT22;6287;50.984;7.022;2023-03-14T09:56:57;9.70;99.90
12446;DHT22;6287;50.984;7.022;2023-03-14T09:59:29;9.30;99.90
12446;DHT22;6287;50.984;7.022;2023-03-14T10:02:00;9.20;99.90
12446;DHT22;6287;50.984;7.022;2023-03-14T10:04:27;8.90;99.90
12446;DHT22;6287;50.984;7.022;2023-03-14T10:06:57;8.90;99.90
12446;DHT22;6287;50.984;7.022;2023-03-14T10:09:24;8.70;99.90
12446;DHT22;6287;50.984;7.022;2023-03-14T10:11:57;8.60;99.90
12446;DHT22;6287;50.984;7.022;2023-03-14T10:14:47;8.50;99.90
12446;DHT22;6287;50.984;7.022;2023-03-14T10:17:17;8.50;99.90
12446;DHT22;6287;50.984;7.022;2023-03-14T10:22:19;8.40;99.90
12446;DHT22;6287;50.984;7.022;2023-03-14T10:24:49;8.40;99.90
12446;DHT22;6287;50.984;7.022;2023-03-14T10:27:21;8.50;99.90
12446;DHT22;6287;50.984;7.022;2023-03-14T10:30:01;8.50;99.90
12446;DHT22;6287;50.984;7.022;2023-03-14T10:32:37;8.50;99.90
12446;DHT22;6287;50.984;7.022;2023-03-14T10:37:57;8.40;99.90
12446;DHT22;6287;50.984;7.022;2023-03-14T10:40:30;8.40;99.90
12446;DHT22;6287;50.984;7.022;2023-03-14T10:42:58;8.30;99.90
12446;DHT22;6287;50.984;7.022;2023-03-14T10:50:48;8.00;99.90
12446;DHT22;6287;50.984;7.022;2023-03-14T10:53:17;8.00;99.90
12446;DHT22;6287;50.984;7.022;2023-03-14T10:55:44;8.00;99.90
12446;DHT22;6287;50.984;7.022;2023-03-14T10:58:29;8.10;99.90
12446;DHT22;6287;50.984;7.022;2023-03-14T11:01:06;8.10;99.90
12446;DHT22;6287;50.984;7.022;2023-03-14T11:03:36;8.20;99.90
12446;DHT22;6287;50.984;7.022;2023-03-14T11:06:10;8.20;99.90
12446;DHT22;6287;50.984;7.022;2023-03-14T11:08:42;8.30;99.90
12446;DHT22;6287;50.984;7.022;2023-03-14T11:11:22;8.50;99.90
12446;DHT22;6287;50.984;7.022;2023-03-14T11:19:37;9.00;99.90
12446;DHT22;6287;50.984;7.022;2023-03-14T11:25:00;9.30;99.90
12446;DHT22;6287;50.984;7.022;2023-03-14T11:30:55;9.70;99.90
12446;DHT22;6287;50.984;7.022;2023-03-14T11:33:28;10.10;99.90
12446;DHT22;6287;50.984;7.022;2023-03-14T11:36:06;10.60;99.90
12446;DHT22;6287;50.984;7.022;2023-03-14T11:38:46;10.80;99.90
12446;DHT22;6287;50.984;7.022;2023-03-14T11:41:36;10.80;99.90
12446;DHT22;6287;50.984;7.022;2023-03-14T11:44:30;10.20;99.90
12446;DHT22;6287;50.984;7.022;2023-03-14T11:49:46;8.80;99.90
12446;DHT22;6287;50.984;7.022;2023-03-14T11:54:56;8.40;99.90
12446;DHT22;6287;50.984;7.022;2023-03-14T11:57:25;8.20;99.90
12446;DHT22;6287;50.984;7.022;2023-03-14T12:03:02;8.00;99.90
12446;DHT22;6287;50.984;7.022;2023-03-14T12:10:55;7.90;99.90
12446;DHT22;6287;50.984;7.022;2023-03-14T12:13:28;7.80;99.90
12446;DHT22;6287;50.984;7.022;2023-03-14T12:15:56;7.60;99.90
12446;DHT22;6287;50.984;7.022;2023-03-14T12:21:01;7.50;99.90
12446;DHT22;6287;50.984;7.022;2023-03-14T12:23:45;7.50;99.90
12446;DHT22;6287;50.984;7.022;2023-03-14T12:28:44;7.70;99.90
12446;DHT22;6287;50.984;7.022;2023-03-14T12:44:50;8.70;99.90
12446;DHT22;6287;50.984;7.022;2023-03-14T12:49:46;8.40;99.90
12446;DHT22;6287;50.984;7.022;2023-03-14T12:52:22;8.70;99.90
12446;DHT22;6287;50.984;7.022;2023-03-14T13:00:23;8.30;99.90
12446;DHT22;6287;50.984;7.022;2023-03-14T13:02:49;7.80;99.90
12446;DHT22;6287;50.984;7.022;2023-03-14T13:05:21;7.80;99.90
12446;DHT22;6287;50.984;7.022;2023-03-14T13:10:40;7.90;99.90
12446;DHT22;6287;50.984;7.022;2023-03-14T13:13:23;8.00;99.90
12446;DHT22;6287;50.984;7.022;2023-03-14T13:15:53;8.10;99.90
12446;DHT22;6287;50.984;7.022;2023-03-14T13:18:40;8.10;99.90
12446;DHT22;6287;50.984;7.022;2023-03-14T13:21:22;8.20;99.90
12446;DHT22;6287;50.984;7.022;2023-03-14T13:26:41;8.50;99.90
12446;DHT22;6287;50.984;7.022;2023-03-14T13:29:22;8.70;99.90
12446;DHT22;6287;50.984;7.022;2023-03-14T13:31:54;9.20;99.90
12446;DHT22;6287;50.984;7.022;2023-03-14T13:34:20;9.40;99.90
12446;DHT22;6287;50.984;7.022;2023-03-14T13:36:53;9.30;99.90
12446;DHT22;6287;50.984;7.022;2023-03-14T13:39:26;9.20;99.90
12446;DHT22;6287;50.984;7.022;2023-03-14T13:41:55;8.80;99.90
12446;DHT22;6287;50.984;7.022;2023-03-14T13:44:38;8.60;99.90
12446;DHT22;6287;50.984;7.022;2023-03-14T13:47:09;8.20;99.90
12446;DHT22;6287;50.984;7.022;2023-03-14T13:49:41;7.80;99.90
12446;DHT22;6287;50.984;7.022;2023-03-14T13:54:47;7.60;99.90
12446;DHT22;6287;50.984;7.022;2023-03-14T13:57:18;7.60;99.90
12446;DHT22;6287;50.984;7.022;2023-03-14T14:00:00;7.60;99.90
12446;DHT22;6287;50.984;7.022;2023-03-14T14:02:31;8.00;99.90
12446;DHT22;6287;50.984;7.022;2023-03-14T14:05:00;7.70;99.90
12446;DHT22;6287;50.984;7.022;2023-03-14T14:07:31;7.90;99.90
12446;DHT22;6287;50.984;7.022;2023-03-14T14:09:59;8.10;99.90
12446;DHT22;6287;50.984;7.022;2023-03-14T14:12:39;8.20;99.90
12446;DHT22;6287;50.984;7.022;2023-03-14T14:18:05;8.50;99.90
12446;DHT22;6287;50.984;7.022;2023-03-14T14:20:35;8.60;99.90
12446;DHT22;6287;50.984;7.022;2023-03-14T14:23:05;8.60;99.90
12446;DHT22;6287;50.984;7.022;2023-03-14T14:25:32;8.50;99.90
12446;DHT22;6287;50.984;7.022;2023-03-14T14:27:58;8.30;99.90
12446;DHT22;6287;50.984;7.022;2023-03-14T14:30:32;8.20;99.90
12446;DHT22;6287;50.984;7.022;2023-03-14T14:33:20;7.90;99.90
12446;DHT22;6287;50.984;7.022;2023-03-14T14:36:04;7.80;99.90
12446;DHT22;6287;50.984;7.022;2023-03-14T14:38:34;7.80;99.90
12446;DHT22;6287;50.984;7.022;2023-03-14T14:41:05;7.80;99.90
12446;DHT22;6287;50.984;7.022;2023-03-14T14:43:36;7.90;99.90
12446;DHT22;6287;50.984;7.022;2023-03-14T14:46:06;8.20;99.90
12446;DHT22;6287;50.984;7.022;2023-03-14T14:48:37;8.10;99.90
12446;DHT22;6287;50.984;7.022;2023-03-14T14:51:05;8.30;99.90
12446;DHT22;6287;50.984;7.022;2023-03-14T14:53:37;8.40;99.90
12446;DHT22;6287;50.984;7.022;2023-03-14T14:58:37;8.50;99.90
12446;DHT22;6287;50.984;7.022;2023-03-14T15:03:32;8.60;99.90
12446;DHT22;6287;50.984;7.022;2023-03-14T15:05:59;8.60;99.90
12446;DHT22;6287;50.984;7.022;2023-03-14T15:08:29;8.50;99.90
12446;DHT22;6287;50.984;7.022;2023-03-14T15:10:58;8.70;99.90
12446;DHT22;6287;50.984;7.022;2023-03-14T15:13:24;8.50;99.90
12446;DHT22;6287;50.984;7.022;2023-03-14T15:15:50;8.40;99.90
12446;DHT22;6287;50.984;7.022;2023-03-14T15:18:25;8.80;99.90
12446;DHT22;6287;50.984;7.022;2023-03-14T15:20:56;8.60;99.90
12446;DHT22;6287;50.984;7.022;2023-03-14T15:23:21;8.80;99.90
12446;DHT22;6287;50.984;7.022;2023-03-14T15:25:47;8.80;99.90
12446;DHT22;6287;50.984;7.022;2023-03-14T15:28:20;8.90;99.90
12446;DHT22;6287;50.984;7.022;2023-03-14T15:30:52;8.90;99.90
12446;DHT22;6287;50.984;7.022;2023-03-14T15:33:21;8.70;99.90
12446;DHT22;6287;50.984;7.022;2023-03-14T15:35:49;8.70;99.90
12446;DHT22;6287;50.984;7.022;2023-03-14T15:38:17;8.70;99.90
12446;DHT22;6287;50.984;7.022;2023-03-14T15:40:46;8.60;99.90
12446;DHT22;6287;50.984;7.022;2023-03-14T15:43:14;8.60;99.90
12446;DHT22;6287;50.984;7.022;2023-03-14T15:45:42;8.70;99.90
12446;DHT22;6287;50.984;7.022;2023-03-14T15:48:18;8.50;99.90
12446;DHT22;6287;50.984;7.022;2023-03-14T15:50:46;8.50;99.90
12446;DHT22;6287;50.984;7.022;2023-03-14T15:53:14;8.40;99.90
12446;DHT22;6287;50.984;7.022;2023-03-14T15:55:39;8.40;99.90
12446;DHT22;6287;50.984;7.022;2023-03-14T15:58:07;8.30;99.90
12446;DHT22;6287;50.984;7.022;2023-03-14T16:00:37;8.30;99.90
12446;DHT22;6287;50.984;7.022;2023-03-14T16:03:03;8.30;99.90
12446;DHT22;6287;50.984;7.022;2023-03-14T16:05:28;8.20;99.90
12446;DHT22;6287;50.984;7.022;2023-03-14T16:07:56;8.10;99.90
12446;DHT22;6287;50.984;7.022;2023-03-14T16:10:22;8.10;99.90
12446;DHT22;6287;50.984;7.022;2023-03-14T16:12:47;8.00;99.90
12446;DHT22;6287;50.984;7.022;2023-03-14T16:15:18;7.90;99.40
12446;DHT22;6287;50.984;7.022;2023-03-14T16:17:44;7.90;99.90
12446;DHT22;6287;50.984;7.022;2023-03-14T16:20:10;7.80;99.30
12446;DHT22;6287;50.984;7.022;2023-03-14T16:22:38;7.80;99.40
12446;DHT22;6287;50.984;7.022;2023-03-14T16:25:06;7.80;99.80
12446;DHT22;6287;50.984;7.022;2023-03-14T16:27:32;7.80;99.90
12446;DHT22;6287;50.984;7.022;2023-03-14T16:30:00;7.70;98.40
12446;DHT22;6287;50.984;7.022;2023-03-14T16:32:26;7.70;98.80
12446;DHT22;6287;50.984;7.022;2023-03-14T16:34:56;7.70;98.70
12446;DHT22;6287;50.984;7.022;2023-03-14T16:37:25;7.60;98.60
12446;DHT22;6287;50.984;7.022;2023-03-14T16:39:55;7.60;98.70
12446;DHT22;6287;50.984;7.022;2023-03-14T16:42:22;7.60;98.00
12446;DHT22;6287;50.984;7.022;2023-03-14T16:44:48;7.50;98.70
12446;DHT22;6287;50.984;7.022;2023-03-14T16:47:13;7.50;98.90
12446;DHT22;6287;50.984;7.022;2023-03-14T16:49:39;7.50;99.40
12446;DHT22;6287;50.984;7.022;2023-03-14T16:52:05;7.30;98.30
12446;DHT22;6287;50.984;7.022;2023-03-14T16:54:32;7.40;97.90
12446;DHT22;6287;50.984;7.022;2023-03-14T16:57:00;7.40;98.70
12446;DHT22;6287;50.984;7.022;2023-03-14T16:59:26;7.40;98.80
12446;DHT22;6287;50.984;7.022;2023-03-14T17:01:55;7.30;99.30
12446;DHT22;6287;50.984;7.022;2023-03-14T17:04:25;7.30;99.90
12446;DHT22;6287;50.984;7.022;2023-03-14T17:06:52;7.20;99.50
12446;DHT22;6287;50.984;7.022;2023-03-14T17:09:20;6.60;98.20
12446;DHT22;6287;50.984;7.022;2023-03-14T17:11:48;7.20;98.80
12446;DHT22;6287;50.984;7.022;2023-03-14T17:14:16;7.00;97.60
12446;DHT22;6287;50.984;7.022;2023-03-14T17:16:44;7.10;98.00
12446;DHT22;6287;50.984;7.022;2023-03-14T17:19:12;7.00;98.90
12446;DHT22;6287;50.984;7.022;2023-03-14T17:21:40;7.00;97.60
12446;DHT22;6287;50.984;7.022;2023-03-14T17:24:08;7.00;98.00
12446;DHT22;6287;50.984;7.022;2023-03-14T17:26:34;6.90;97.90
12446;DHT22;6287;50.984;7.022;2023-03-14T17:29:02;6.90;98.30
12446;DHT22;6287;50.984;7.022;2023-03-14T17:31:28;6.90;98.30
12446;DHT22;6287;50.984;7.022;2023-03-14T17:33:57;6.80;98.20
12446;DHT22;6287;50.984;7.022;2023-03-14T17:36:22;6.80;98.40